createdAt,value
2022-08-04T00:00:11.528Z,1.20
2022-08-04T00:02:38.270Z,1.07
2022-08-04T00:05:05.846Z,1.23
2022-08-04T00:07:44.032Z,1.00
2022-08-04T00:10:11.900Z,1.47
2022-08-04T00:12:45.401Z,1.07
2022-08-04T00:15:15.556Z,1.20
2022-08-04T00:18:04.678Z,1.33
2022-08-04T00:20:33.183Z,1.10
2022-08-04T00:23:00.377Z,1.23
2022-08-04T00:25:27.223Z,1.30
2022-08-04T00:27:54.495Z,1.00
2022-08-04T00:30:21.287Z,1.20
2022-08-04T00:32:47.995Z,1.10
2022-08-04T00:35:15.052Z,1.60
2022-08-04T00:37:43.364Z,1.40
2022-08-04T00:40:22.817Z,1.27
2022-08-04T00:43:19.173Z,1.30
2022-08-04T00:46:28.849Z,1.20
2022-08-04T00:49:14.205Z,1.40
2022-08-04T00:51:40.912Z,1.13
2022-08-04T00:54:12.991Z,1.10
2022-08-04T00:57:29.840Z,1.00
2022-08-04T01:00:03.353Z,1.27
2022-08-04T01:02:54.986Z,0.83
2022-08-04T01:05:28.841Z,0.90
2022-08-04T01:08:42.671Z,0.80
2022-08-04T01:11:31.329Z,0.80
2022-08-04T01:14:31.818Z,0.97
2022-08-04T01:17:01.982Z,0.90
2022-08-04T01:19:42.182Z,0.40
2022-08-04T01:22:19.568Z,0.60
2022-08-04T01:25:12.361Z,0.80
2022-08-04T01:27:55.261Z,0.87
2022-08-04T01:30:24.007Z,0.53
2022-08-04T01:32:53.391Z,0.90
2022-08-04T01:35:47.736Z,0.80
2022-08-04T01:38:21.535Z,0.90
2022-08-04T01:40:49.952Z,0.80
2022-08-04T01:43:16.728Z,0.80
2022-08-04T01:45:43.454Z,0.50
2022-08-04T01:48:10.220Z,0.60
2022-08-04T01:50:37.093Z,0.80
2022-08-04T01:53:04.236Z,0.70
2022-08-04T01:55:54.127Z,0.67
2022-08-04T01:58:19.054Z,0.60
2022-08-04T02:00:57.463Z,0.77
2022-08-04T02:03:24.555Z,0.67
2022-08-04T02:06:33.845Z,0.80
2022-08-04T02:09:07.114Z,0.60
2022-08-04T02:11:33.854Z,0.70
2022-08-04T02:14:03.050Z,0.97
2022-08-04T02:16:44.473Z,0.80
2022-08-04T02:19:21.373Z,0.90
2022-08-04T02:21:50.673Z,1.30
2022-08-04T02:24:18.852Z,1.00
2022-08-04T02:26:47.345Z,0.90
2022-08-04T02:29:18.158Z,0.97
2022-08-04T02:32:00.701Z,1.10
2022-08-04T02:34:39.436Z,0.83
2022-08-04T02:37:06.148Z,0.90
2022-08-04T02:39:48.234Z,0.70
2022-08-04T02:42:15.430Z,1.03
2022-08-04T02:44:42.465Z,0.70
2022-08-04T02:47:09.259Z,0.70
2022-08-04T02:49:36.565Z,0.70
2022-08-04T02:52:07.372Z,0.60
2022-08-04T02:54:35.787Z,0.30
2022-08-04T02:57:02.653Z,0.40
2022-08-04T03:00:02.428Z,0.37
2022-08-04T03:02:35.027Z,0.40
2022-08-04T03:05:07.241Z,0.30
2022-08-04T03:08:00.157Z,0.50
2022-08-04T03:10:52.521Z,0.40
2022-08-04T03:13:31.106Z,0.50
2022-08-04T03:16:25.325Z,0.67
2022-08-04T03:19:19.428Z,0.50
2022-08-04T03:22:19.861Z,0.60
2022-08-04T03:25:14.733Z,0.50
2022-08-04T03:28:01.893Z,0.50
2022-08-04T03:30:43.556Z,0.40
2022-08-04T03:33:48.012Z,0.30
2022-08-04T03:37:03.444Z,0.50
2022-08-04T03:39:48.635Z,0.30
2022-08-04T03:42:24.556Z,0.40
2022-08-04T03:45:28.859Z,0.30
2022-08-04T03:48:33.301Z,0.40
2022-08-04T03:52:01.578Z,0.30
2022-08-04T03:55:03.608Z,0.30
2022-08-04T03:58:07.358Z,0.50
2022-08-04T04:00:45.599Z,0.70
2022-08-04T04:03:50.721Z,0.60
2022-08-04T04:06:35.920Z,0.80
2022-08-04T04:09:28.696Z,0.70
2022-08-04T04:12:28.289Z,0.60
2022-08-04T04:14:58.768Z,0.57
2022-08-04T04:18:04.865Z,0.57
2022-08-04T04:20:57.382Z,0.53
2022-08-04T04:23:42.910Z,0.43
2022-08-04T04:26:30.829Z,0.70
2022-08-04T04:29:09.515Z,0.70
2022-08-04T04:32:09.695Z,0.60
2022-08-04T04:34:45.826Z,0.60
2022-08-04T04:37:19.052Z,0.40
2022-08-04T04:39:55.325Z,0.47
2022-08-04T04:43:01.464Z,0.90
2022-08-04T04:45:55.861Z,0.90
2022-08-04T04:48:41.117Z,0.77
2022-08-04T04:51:16.648Z,0.60
2022-08-04T04:54:08.174Z,0.63
2022-08-04T04:57:09.785Z,0.60
2022-08-04T04:59:38.170Z,0.90
2022-08-04T05:02:19.964Z,0.60
2022-08-04T05:05:06.069Z,1.00
2022-08-04T05:07:44.615Z,1.07
2022-08-04T05:10:49.177Z,1.23
2022-08-04T05:14:36.506Z,1.37
2022-08-04T05:17:10.903Z,1.30
2022-08-04T05:20:25.988Z,1.03
2022-08-04T05:23:02.211Z,1.03
2022-08-04T05:25:59.478Z,1.20
2022-08-04T05:28:55.054Z,1.27
2022-08-04T05:31:24.586Z,1.40
2022-08-04T05:34:16.174Z,1.30
2022-08-04T05:36:56.456Z,0.93
2022-08-04T05:39:25.393Z,0.90
2022-08-04T05:41:55.112Z,0.97
2022-08-04T05:44:25.293Z,1.33
2022-08-04T05:46:53.741Z,0.90
2022-08-04T05:49:22.945Z,1.13
2022-08-04T05:51:49.701Z,1.20
2022-08-04T05:54:16.463Z,1.30
2022-08-04T05:56:43.213Z,1.00
2022-08-04T05:59:10.880Z,1.23
2022-08-04T06:01:55.088Z,1.00
2022-08-04T06:04:38.669Z,1.00
2022-08-04T06:07:05.975Z,1.20
2022-08-04T06:09:32.749Z,1.17
2022-08-04T06:12:03.706Z,1.07
2022-08-04T06:14:45.478Z,1.07
2022-08-04T06:18:33.621Z,0.90
2022-08-04T06:20:19.519Z,1.00
2022-08-04T06:22:52.532Z,0.90
2022-08-04T06:25:22.845Z,1.33
2022-08-04T06:27:50.085Z,1.00
2022-08-04T06:30:19.156Z,1.20
2022-08-04T06:32:50.005Z,0.83
2022-08-04T06:35:20.359Z,0.90
2022-08-04T06:37:47.180Z,1.10
2022-08-04T06:40:30.485Z,0.90
2022-08-04T06:43:03.572Z,1.10
2022-08-04T06:45:30.485Z,0.90
2022-08-04T06:47:57.315Z,1.00
2022-08-04T06:51:28.279Z,1.10
2022-08-04T06:53:11.263Z,0.90
2022-08-04T06:55:38.242Z,0.93
2022-08-04T06:58:05.092Z,1.43
2022-08-04T07:00:32.316Z,1.10
2022-08-04T07:02:59.330Z,0.87
2022-08-04T07:05:26.056Z,1.30
2022-08-04T07:07:58.282Z,1.10
2022-08-04T07:10:29.360Z,0.90
2022-08-04T07:12:59.979Z,0.90
2022-08-04T07:15:26.992Z,0.80
2022-08-04T07:17:54.290Z,1.30
2022-08-04T07:20:34.068Z,0.80
2022-08-04T07:23:05.538Z,0.70
2022-08-04T07:26:01.064Z,1.00
2022-08-04T07:28:23.715Z,1.10
2022-08-04T07:30:50.572Z,1.20
2022-08-04T07:33:18.297Z,0.90
2022-08-04T07:36:04.479Z,0.80
2022-08-04T07:38:37.914Z,0.70
2022-08-04T07:44:04.511Z,1.47
2022-08-04T07:46:31.319Z,1.03
2022-08-04T07:48:59.745Z,1.00
2022-08-04T07:51:26.692Z,0.90
2022-08-04T07:53:56.181Z,1.10
2022-08-04T07:56:23.393Z,1.00
2022-08-04T07:58:50.553Z,1.10
2022-08-04T08:01:17.577Z,1.03
2022-08-04T08:03:44.420Z,0.97
2022-08-04T08:06:31.424Z,1.10
2022-08-04T08:08:59.459Z,0.80
2022-08-04T08:12:36.636Z,0.93
2022-08-04T08:14:16.302Z,1.17
2022-08-04T08:16:43.092Z,1.00
2022-08-04T08:19:09.876Z,0.90
2022-08-04T08:21:36.661Z,0.80
2022-08-04T08:24:23.353Z,0.77
2022-08-04T08:26:50.057Z,0.93
2022-08-04T08:29:16.778Z,0.80
2022-08-04T08:31:56.319Z,0.67
2022-08-04T08:34:28.250Z,0.60
2022-08-04T08:37:20.599Z,0.87
2022-08-04T08:40:01.841Z,0.87
2022-08-04T08:44:06.150Z,0.97
2022-08-04T08:46:47.955Z,0.70
2022-08-04T08:50:00.593Z,0.93
2022-08-04T08:53:01.334Z,0.77
2022-08-04T08:55:23.141Z,0.60
2022-08-04T08:58:18.240Z,0.70
2022-08-04T09:00:50.366Z,0.80
2022-08-04T09:03:17.115Z,0.83
2022-08-04T09:06:02.486Z,0.60
2022-08-04T09:08:41.219Z,0.53
2022-08-04T09:11:16.721Z,0.60
2022-08-04T09:13:46.279Z,0.50
2022-08-04T09:16:31.980Z,0.73
2022-08-04T09:19:07.720Z,0.60
2022-08-04T09:21:56.728Z,0.57
2022-08-04T09:24:36.217Z,0.50
2022-08-04T09:27:20.375Z,0.50
2022-08-04T09:29:57.418Z,0.50
2022-08-04T09:32:24.128Z,0.80
2022-08-04T09:35:03.552Z,0.87
2022-08-04T09:38:03.396Z,0.60
2022-08-04T09:41:03.650Z,0.47
2022-08-04T09:43:59.235Z,0.60
2022-08-04T09:46:48.017Z,0.60
2022-08-04T09:49:19.969Z,0.57
2022-08-04T09:51:57.427Z,0.40
2022-08-04T09:54:49.418Z,0.40
2022-08-04T09:57:31.421Z,0.50
2022-08-04T10:00:01.772Z,0.60
2022-08-04T10:02:31.563Z,0.60
2022-08-04T10:04:58.520Z,0.67
2022-08-04T10:07:34.425Z,0.40
2022-08-04T10:10:22.975Z,0.60
2022-08-04T10:13:06.243Z,0.60
2022-08-04T10:15:47.093Z,0.60
2022-08-04T10:18:56.011Z,0.80
2022-08-04T10:22:29.963Z,0.70
2022-08-04T10:25:38.973Z,0.80
2022-08-04T10:28:20.393Z,0.60
2022-08-04T10:30:54.999Z,0.60
2022-08-04T10:33:42.424Z,0.60
2022-08-04T10:36:12.946Z,0.50
2022-08-04T10:38:50.836Z,0.50
2022-08-04T10:41:23.769Z,0.60
2022-08-04T10:43:59.230Z,0.57
2022-08-04T10:46:37.070Z,0.53
2022-08-04T10:49:14.805Z,0.30
2022-08-04T10:51:57.452Z,0.63
2022-08-04T10:54:43.855Z,0.60
2022-08-04T10:57:18.303Z,0.67
2022-08-04T11:00:00.566Z,0.80
2022-08-04T11:03:01.328Z,0.63
2022-08-04T11:05:49.068Z,0.50
2022-08-04T11:08:42.204Z,0.50
2022-08-04T11:11:16.918Z,0.50
2022-08-04T11:14:04.505Z,0.53
2022-08-04T11:16:40.255Z,0.40
2022-08-04T11:19:44.672Z,0.50
2022-08-04T11:22:22.682Z,0.50
2022-08-04T11:24:50.824Z,0.40
2022-08-04T11:27:29.834Z,0.67
2022-08-04T11:30:06.467Z,0.40
2022-08-04T11:32:45.233Z,0.47
2022-08-04T11:35:35.745Z,0.60
2022-08-04T11:38:09.295Z,0.60
2022-08-04T11:41:02.174Z,0.40
2022-08-04T11:43:56.218Z,0.40
2022-08-04T11:46:42.364Z,0.40
2022-08-04T11:49:31.552Z,0.40
2022-08-04T11:52:18.889Z,0.67
2022-08-04T11:54:52.528Z,0.40
2022-08-04T11:57:21.711Z,0.70
2022-08-04T11:59:54.727Z,0.60
2022-08-04T12:02:27.497Z,0.40
2022-08-04T12:05:00.666Z,0.40
2022-08-04T12:07:43.027Z,0.47
2022-08-04T12:10:37.979Z,0.50
2022-08-04T12:13:36.550Z,0.50
2022-08-04T12:16:22.449Z,0.60
2022-08-04T12:18:59.056Z,0.57
2022-08-04T12:21:30.411Z,0.50
2022-08-04T12:24:00.868Z,0.43
2022-08-04T12:26:29.487Z,0.50
2022-08-04T12:29:16.412Z,0.87
2022-08-04T12:31:50.240Z,0.70
2022-08-04T12:34:20.992Z,0.40
2022-08-04T12:37:02.177Z,0.60
2022-08-04T12:39:29.016Z,0.50
2022-08-04T12:42:21.304Z,0.50
2022-08-04T12:44:53.961Z,0.53
2022-08-04T12:47:27.379Z,0.60
2022-08-04T12:50:02.261Z,0.53
2022-08-04T12:53:01.609Z,0.50
2022-08-04T12:55:25.391Z,0.70
2022-08-04T12:57:52.285Z,0.50
2022-08-04T13:00:30.106Z,0.43
2022-08-04T13:03:10.588Z,0.50
2022-08-04T13:05:39.150Z,0.40
2022-08-04T13:08:05.980Z,0.60
2022-08-04T13:10:32.869Z,0.53
2022-08-04T13:13:00.311Z,0.60
2022-08-04T13:15:28.185Z,0.50
2022-08-04T13:18:03.502Z,0.43
2022-08-04T13:20:32.425Z,0.50
2022-08-04T13:23:12.819Z,0.50
2022-08-04T13:26:43.303Z,0.73
2022-08-04T13:28:32.017Z,0.53
2022-08-04T13:31:05.139Z,0.57
2022-08-04T13:33:36.583Z,0.60
2022-08-04T13:36:04.067Z,0.67
2022-08-04T13:38:30.824Z,0.60
2022-08-04T13:41:00.141Z,0.50
2022-08-04T13:44:16.403Z,0.80
2022-08-04T13:46:28.084Z,0.77
2022-08-04T13:49:23.708Z,0.60
2022-08-04T13:51:57.531Z,0.50
2022-08-04T13:54:45.797Z,0.57
2022-08-04T13:57:30.132Z,0.83
2022-08-04T14:00:00.360Z,0.83
2022-08-04T14:02:32.212Z,0.80
2022-08-04T14:05:05.307Z,0.77
2022-08-04T14:07:51.524Z,0.80
2022-08-04T14:10:18.323Z,0.80
2022-08-04T14:12:47.123Z,0.43
2022-08-04T14:15:54.835Z,0.90
2022-08-04T14:18:27.847Z,0.73
2022-08-04T14:21:01.473Z,0.70
2022-08-04T14:23:33.367Z,0.60
2022-08-04T14:26:00.280Z,0.57
2022-08-04T14:29:09.639Z,0.50
2022-08-04T14:31:21.951Z,0.43
2022-08-04T14:34:01.504Z,0.87
2022-08-04T14:37:16.295Z,0.50
2022-08-04T14:40:17.680Z,0.97
2022-08-04T14:42:55.831Z,0.60
2022-08-04T14:45:54.101Z,0.60
2022-08-04T14:48:22.011Z,0.70
2022-08-04T14:50:49.680Z,0.60
2022-08-04T14:53:21.285Z,0.63
2022-08-04T14:55:59.093Z,0.50
2022-08-04T14:58:34.925Z,0.70
2022-08-04T15:01:10.425Z,0.60
2022-08-04T15:03:49.569Z,0.50
2022-08-04T15:06:25.563Z,0.60
2022-08-04T15:08:54.191Z,0.47
2022-08-04T15:11:23.282Z,0.47
2022-08-04T15:13:53.798Z,0.60
2022-08-04T15:16:21.587Z,0.70
2022-08-04T15:18:49.476Z,0.50
2022-08-04T15:21:16.587Z,0.50
2022-08-04T15:23:43.305Z,0.60
2022-08-04T15:26:12.513Z,0.70
2022-08-04T15:28:41.898Z,0.60
2022-08-04T15:31:10.610Z,0.80
2022-08-04T15:33:56.139Z,0.80
2022-08-04T15:36:32.341Z,0.50
2022-08-04T15:39:09.992Z,0.60
2022-08-04T15:41:55.011Z,0.50
2022-08-04T15:44:50.095Z,0.60
2022-08-04T15:47:16.964Z,0.60
2022-08-04T15:49:46.763Z,0.70
2022-08-04T15:52:15.998Z,0.60
2022-08-04T15:54:52.813Z,0.63
2022-08-04T15:57:39.800Z,0.40
2022-08-04T16:00:12.802Z,0.60
2022-08-04T16:02:43.853Z,0.90
2022-08-04T16:05:18.217Z,0.77
2022-08-04T16:08:04.508Z,0.90
2022-08-04T16:10:31.205Z,0.90
2022-08-04T16:12:59.438Z,0.90
2022-08-04T16:15:38.632Z,0.83
2022-08-04T16:18:06.870Z,0.80
2022-08-04T16:20:36.224Z,1.00
2022-08-04T16:23:31.718Z,1.50
2022-08-04T16:26:02.986Z,1.10
2022-08-04T16:28:35.756Z,0.80
2022-08-04T16:31:04.729Z,0.87
2022-08-04T16:33:43.676Z,0.90
2022-08-04T16:36:12.324Z,1.53
2022-08-04T16:39:05.558Z,1.20
2022-08-04T16:41:42.402Z,1.20
2022-08-04T16:44:52.599Z,0.97
2022-08-04T16:47:21.802Z,1.03
2022-08-04T16:49:59.995Z,1.20
2022-08-04T16:52:27.188Z,1.17
2022-08-04T16:54:54.129Z,0.73
2022-08-04T16:57:20.920Z,1.20
2022-08-04T16:59:51.397Z,1.30
2022-08-04T17:02:18.277Z,0.80
2022-08-04T17:04:45.102Z,0.80
2022-08-04T17:07:11.895Z,1.13
2022-08-04T17:09:38.708Z,1.47
2022-08-04T17:12:05.819Z,1.30
2022-08-04T17:14:32.601Z,1.37
2022-08-04T17:17:00.445Z,1.17
2022-08-04T17:19:27.254Z,1.13
2022-08-04T17:22:04.310Z,1.27
2022-08-04T17:24:32.827Z,1.00
2022-08-04T17:26:59.673Z,0.80
2022-08-04T17:29:43.822Z,1.10
2022-08-04T17:32:19.699Z,1.60
2022-08-04T17:34:50.470Z,1.13
2022-08-04T17:37:39.386Z,1.00
2022-08-04T17:40:12.119Z,1.03
2022-08-04T17:42:40.362Z,1.43
2022-08-04T17:45:39.887Z,1.53
2022-08-04T17:47:57.011Z,1.20
2022-08-04T17:50:34.717Z,1.00
2022-08-04T17:53:11.619Z,1.30
2022-08-04T17:55:42.765Z,1.43
2022-08-04T17:58:20.517Z,1.40
2022-08-04T18:00:51.980Z,1.00
2022-08-04T18:03:29.976Z,1.10
2022-08-04T18:06:03.389Z,1.03
2022-08-04T18:08:38.248Z,1.17
2022-08-04T18:11:08.374Z,1.43
2022-08-04T18:13:42.637Z,1.07
2022-08-04T18:16:22.181Z,0.90
2022-08-04T18:19:09.237Z,1.00
2022-08-04T18:21:46.796Z,1.10
2022-08-04T18:24:33.857Z,1.10
2022-08-04T18:27:01.820Z,1.07
2022-08-04T18:29:31.724Z,1.20
2022-08-04T18:31:58.903Z,1.10
2022-08-04T18:34:27.069Z,1.30
2022-08-04T18:36:59.096Z,1.00
2022-08-04T18:40:25.026Z,1.07
2022-08-04T18:42:14.888Z,1.02
2022-08-04T18:44:52.908Z,1.30
2022-08-04T18:47:23.109Z,1.20
2022-08-04T18:51:00.673Z,1.20
2022-08-04T18:52:45.180Z,1.13
2022-08-04T18:55:12.402Z,1.13
2022-08-04T18:58:01.691Z,1.40
2022-08-04T19:00:33.232Z,1.60
2022-08-04T19:03:01.347Z,1.20
2022-08-04T19:05:38.209Z,1.20
2022-08-04T19:08:11.664Z,1.40
2022-08-04T19:10:59.592Z,1.03
2022-08-04T19:13:27.749Z,1.17
2022-08-04T19:15:54.639Z,1.40
2022-08-04T19:18:25.460Z,0.97
2022-08-04T19:20:54.922Z,1.20
2022-08-04T19:24:30.195Z,1.10
2022-08-04T19:26:23.690Z,1.00
2022-08-04T19:28:55.155Z,1.30
2022-08-04T19:31:34.441Z,1.20
2022-08-04T19:34:09.232Z,1.40
2022-08-04T19:36:35.954Z,1.30
2022-08-04T19:39:09.243Z,1.63
2022-08-04T19:42:06.695Z,1.30
2022-08-04T19:44:25.637Z,1.43
2022-08-04T19:46:57.400Z,1.50
2022-08-04T19:50:04.775Z,1.57
2022-08-04T19:52:14.442Z,1.50
2022-08-04T19:55:00.283Z,1.73
2022-08-04T19:57:38.010Z,1.50
2022-08-04T20:00:10.178Z,1.70
2022-08-04T20:02:37.625Z,1.60
2022-08-04T20:05:08.845Z,1.60
2022-08-04T20:07:35.853Z,1.60
2022-08-04T20:10:04.376Z,1.87
2022-08-04T20:12:31.380Z,1.50
2022-08-04T20:14:58.081Z,1.83
2022-08-04T20:17:55.838Z,1.60
2022-08-04T20:20:13.496Z,1.63
2022-08-04T20:22:53.257Z,1.40
2022-08-04T20:25:36.385Z,1.43
2022-08-04T20:28:03.975Z,1.70
2022-08-04T20:30:33.013Z,2.00
2022-08-04T20:33:01.296Z,1.60
2022-08-04T20:35:32.523Z,1.77
2022-08-04T20:38:33.620Z,1.70
2022-08-04T20:41:01.560Z,1.50
2022-08-04T20:43:28.387Z,1.70
2022-08-04T20:45:59.258Z,1.30
2022-08-04T20:48:30.304Z,1.80
2022-08-04T20:51:00.695Z,1.60
2022-08-04T20:53:32.522Z,1.50
2022-08-04T20:55:59.603Z,1.50
2022-08-04T20:58:27.546Z,1.80
2022-08-04T21:00:55.346Z,1.93
2022-08-04T21:03:38.809Z,2.03
2022-08-04T21:06:09.202Z,1.70
2022-08-04T21:08:37.139Z,1.60
2022-08-04T21:11:06.707Z,2.03
2022-08-04T21:13:50.879Z,1.70
2022-08-04T21:16:54.638Z,1.70
2022-08-04T21:19:13.041Z,1.73
2022-08-04T21:21:41.160Z,1.83
2022-08-04T21:24:09.109Z,2.03
2022-08-04T21:26:35.899Z,1.50
2022-08-04T21:29:04.599Z,1.53
2022-08-04T21:31:32.700Z,1.73
2022-08-04T21:34:16.898Z,1.70
2022-08-04T21:37:03.690Z,2.27
2022-08-04T21:39:32.661Z,2.10
2022-08-04T21:42:27.876Z,1.80
2022-08-04T21:44:46.288Z,1.50
2022-08-04T21:47:23.209Z,2.00
2022-08-04T21:49:56.391Z,1.43
2022-08-04T21:52:24.367Z,1.87
2022-08-04T21:54:54.608Z,1.90
2022-08-04T21:57:24.795Z,2.10
2022-08-04T21:59:51.930Z,1.80
2022-08-04T22:02:18.798Z,1.80
2022-08-04T22:04:45.644Z,1.93
2022-08-04T22:07:12.383Z,1.70
2022-08-04T22:09:45.680Z,1.50
2022-08-04T22:12:27.348Z,1.87
2022-08-04T22:14:59.552Z,1.30
2022-08-04T22:20:27.205Z,2.10
2022-08-04T22:23:00.145Z,1.90
2022-08-04T22:25:33.047Z,1.90
2022-08-04T22:28:07.755Z,2.00
2022-08-04T22:30:37.470Z,1.63
2022-08-04T22:33:07.747Z,2.17
2022-08-04T22:35:44.228Z,1.90
2022-08-04T22:38:24.121Z,1.90
2022-08-04T22:40:59.672Z,2.03
2022-08-04T22:43:32.635Z,2.03
2022-08-04T22:46:02.037Z,1.80
2022-08-04T22:48:32.178Z,1.70
2022-08-04T22:51:00.014Z,1.63
2022-08-04T22:53:26.790Z,1.70
2022-08-04T22:56:07.474Z,1.80
2022-08-04T22:58:45.050Z,1.60
2022-08-04T23:01:13.691Z,1.80
2022-08-04T23:03:42.469Z,1.70
2022-08-04T23:06:24.589Z,1.27
2022-08-04T23:08:51.740Z,1.73
2022-08-04T23:11:18.493Z,1.53
2022-08-04T23:13:45.469Z,1.50
2022-08-04T23:16:13.929Z,1.97
2022-08-04T23:18:42.052Z,1.67
2022-08-04T23:21:12.472Z,1.40
2022-08-04T23:23:45.386Z,1.50
2022-08-04T23:26:27.358Z,1.93
2022-08-04T23:28:55.286Z,2.10
2022-08-04T23:31:21.993Z,2.00
2022-08-04T23:33:50.857Z,2.50
2022-08-04T23:36:29.582Z,1.93
2022-08-04T23:39:01.419Z,2.10
2022-08-04T23:41:53.480Z,1.60
2022-08-04T23:44:24.415Z,1.90
2022-08-04T23:46:58.064Z,1.73
2022-08-04T23:49:40.477Z,1.90
2022-08-04T23:52:23.430Z,2.27
2022-08-04T23:55:00.132Z,2.20
2022-08-04T23:57:31.026Z,2.20
